sensor_id;sensor_type;location;lat;lon;timestamp;temperature;humidity
54946;DHT22;40846;44.788;20.486;2024-01-10T00:02:06;38.50;2201.60
54946;DHT22;40846;44.788;20.486;2024-01-10T00:04:31;38.40;2201.60
54946;DHT22;40846;44.788;20.486;2024-01-10T00:06:57;38.50;2201.60
54946;DHT22;40846;44.788;20.486;2024-01-10T00:09:23;38.60;2201.60
54946;DHT22;40846;44.788;20.486;2024-01-10T00:11:49;38.50;2201.60
54946;DHT22;40846;44.788;20.486;2024-01-10T00:14:15;38.60;2201.60
54946;DHT22;40846;44.788;20.486;2024-01-10T00:16:42;38.60;2201.60
54946;DHT22;40846;44.788;20.486;2024-01-10T00:19:10;38.50;2201.60
54946;DHT22;40846;44.788;20.486;2024-01-10T00:21:36;38.40;2201.60
54946;DHT22;40846;44.788;20.486;2024-01-10T00:24:02;38.40;2201.60
54946;DHT22;40846;44.788;20.486;2024-01-10T00:26:28;38.40;2201.60
54946;DHT22;40846;44.788;20.486;2024-01-10T00:28:54;38.40;2201.60
54946;DHT22;40846;44.788;20.486;2024-01-10T00:31:19;13.70;2201.60
54946;DHT22;40846;44.788;20.486;2024-01-10T00:33:45;38.40;2201.60
54946;DHT22;40846;44.788;20.486;2024-01-10T00:36:11;38.40;2201.60
54946;DHT22;40846;44.788;20.486;2024-01-10T00:38:37;38.40;2201.60
54946;DHT22;40846;44.788;20.486;2024-01-10T00:41:06;38.50;2201.60
54946;DHT22;40846;44.788;20.486;2024-01-10T00:43:32;38.60;2201.60
54946;DHT22;40846;44.788;20.486;2024-01-10T00:45:58;38.70;2201.60
54946;DHT22;40846;44.788;20.486;2024-01-10T00:48:24;38.80;2201.60
54946;DHT22;40846;44.788;20.486;2024-01-10T00:50:50;38.70;2201.60
54946;DHT22;40846;44.788;20.486;2024-01-10T00:53:16;38.70;2201.60
54946;DHT22;40846;44.788;20.486;2024-01-10T00:55:41;38.80;2201.60
54946;DHT22;40846;44.788;20.486;2024-01-10T00:58:07;38.70;2201.60
54946;DHT22;40846;44.788;20.486;2024-01-10T01:00:33;38.70;2201.60
54946;DHT22;40846;44.788;20.486;2024-01-10T01:03:02;38.70;2201.60
54946;DHT22;40846;44.788;20.486;2024-01-10T01:05:27;38.80;2201.60
54946;DHT22;40846;44.788;20.486;2024-01-10T01:07:53;39.00;2201.60
54946;DHT22;40846;44.788;20.486;2024-01-10T01:10:19;39.10;2201.60
54946;DHT22;40846;44.788;20.486;2024-01-10T01:12:45;39.10;2201.60
54946;DHT22;40846;44.788;20.486;2024-01-10T01:15:11;39.00;2201.60
54946;DHT22;40846;44.788;20.486;2024-01-10T01:17:37;39.10;2201.60
54946;DHT22;40846;44.788;20.486;2024-01-10T01:20:03;39.10;2201.60
54946;DHT22;40846;44.788;20.486;2024-01-10T01:22:30;39.10;2201.60
54946;DHT22;40846;44.788;20.486;2024-01-10T01:24:57;39.10;2201.60
54946;DHT22;40846;44.788;20.486;2024-01-10T01:27:25;39.10;2201.60
54946;DHT22;40846;44.788;20.486;2024-01-10T01:29:51;39.10;2201.60
54946;DHT22;40846;44.788;20.486;2024-01-10T01:32:16;39.20;2201.60
54946;DHT22;40846;44.788;20.486;2024-01-10T01:34:42;39.30;2201.60
54946;DHT22;40846;44.788;20.486;2024-01-10T01:37:08;64.00;2201.60
54946;DHT22;40846;44.788;20.486;2024-01-10T01:39:34;64.10;2201.60
54946;DHT22;40846;44.788;20.486;2024-01-10T01:42:00;64.10;2201.60
54946;DHT22;40846;44.788;20.486;2024-01-10T01:44:26;64.20;2201.60
54946;DHT22;40846;44.788;20.486;2024-01-10T01:46:54;64.20;2201.60
54946;DHT22;40846;44.788;20.486;2024-01-10T01:49:20;64.20;2201.60
54946;DHT22;40846;44.788;20.486;2024-01-10T01:51:47;64.10;2201.60
54946;DHT22;40846;44.788;20.486;2024-01-10T01:54:16;64.00;2201.60
54946;DHT22;40846;44.788;20.486;2024-01-10T01:56:42;64.20;2201.60
54946;DHT22;40846;44.788;20.486;2024-01-10T01:59:10;64.20;2201.60
54946;DHT22;40846;44.788;20.486;2024-01-10T02:01:39;64.20;2201.60
54946;DHT22;40846;44.788;20.486;2024-01-10T02:04:05;64.10;2201.60
54946;DHT22;40846;44.788;20.486;2024-01-10T02:06:31;64.20;2201.60
54946;DHT22;40846;44.788;20.486;2024-01-10T02:09:00;64.10;2201.60
54946;DHT22;40846;44.788;20.486;2024-01-10T02:11:26;64.40;2201.60
54946;DHT22;40846;44.788;20.486;2024-01-10T02:13:52;64.40;2201.60
54946;DHT22;40846;44.788;20.486;2024-01-10T02:16:22;64.40;2201.60
54946;DHT22;40846;44.788;20.486;2024-01-10T02:18:50;64.40;2201.60
54946;DHT22;40846;44.788;20.486;2024-01-10T02:21:22;64.70;2201.60
54946;DHT22;40846;44.788;20.486;2024-01-10T02:23:48;64.30;2201.60
54946;DHT22;40846;44.788;20.486;2024-01-10T02:26:15;64.30;2201.60
54946;DHT22;40846;44.788;20.486;2024-01-10T02:28:41;64.40;2201.60
54946;DHT22;40846;44.788;20.486;2024-01-10T02:31:06;64.40;2201.60
54946;DHT22;40846;44.788;20.486;2024-01-10T02:33:32;64.40;2201.60
54946;DHT22;40846;44.788;20.486;2024-01-10T02:35:58;64.50;2201.60
54946;DHT22;40846;44.788;20.486;2024-01-10T02:38:24;64.40;2201.60
54946;DHT22;40846;44.788;20.486;2024-01-10T02:40:50;64.40;2201.60
54946;DHT22;40846;44.788;20.486;2024-01-10T02:43:16;64.40;2201.60
54946;DHT22;40846;44.788;20.486;2024-01-10T02:45:41;64.40;2201.60
54946;DHT22;40846;44.788;20.486;2024-01-10T02:48:07;64.40;2201.60
54946;DHT22;40846;44.788;20.486;2024-01-10T02:50:33;64.50;2201.60
54946;DHT22;40846;44.788;20.486;2024-01-10T02:52:59;64.60;2201.60
54946;DHT22;40846;44.788;20.486;2024-01-10T02:55:25;64.70;2201.60
54946;DHT22;40846;44.788;20.486;2024-01-10T02:57:51;64.70;2201.60
54946;DHT22;40846;44.788;20.486;2024-01-10T03:00:17;64.70;2201.60
54946;DHT22;40846;44.788;20.486;2024-01-10T03:02:43;64.70;2201.60
54946;DHT22;40846;44.788;20.486;2024-01-10T03:05:08;64.90;2201.60
54946;DHT22;40846;44.788;20.486;2024-01-10T03:07:35;64.90;2201.60
54946;DHT22;40846;44.788;20.486;2024-01-10T03:10:00;89.60;2201.60
54946;DHT22;40846;44.788;20.486;2024-01-10T03:12:26;64.90;2201.60
54946;DHT22;40846;44.788;20.486;2024-01-10T03:14:52;89.60;2201.60
54946;DHT22;40846;44.788;20.486;2024-01-10T03:17:18;89.60;2201.60
54946;DHT22;40846;44.788;20.486;2024-01-10T03:19:43;64.80;2201.60
54946;DHT22;40846;44.788;20.486;2024-01-10T03:22:10;64.70;2201.60
54946;DHT22;40846;44.788;20.486;2024-01-10T03:24:37;64.80;2201.60
54946;DHT22;40846;44.788;20.486;2024-01-10T03:27:04;64.80;2201.60
54946;DHT22;40846;44.788;20.486;2024-01-10T03:29:30;64.90;2201.60
54946;DHT22;40846;44.788;20.486;2024-01-10T03:31:55;64.80;2201.60
54946;DHT22;40846;44.788;20.486;2024-01-10T03:34:21;64.80;2201.60
54946;DHT22;40846;44.788;20.486;2024-01-10T03:36:47;64.90;2201.60
54946;DHT22;40846;44.788;20.486;2024-01-10T03:39:13;64.90;2201.60
54946;DHT22;40846;44.788;20.486;2024-01-10T03:41:39;64.80;2201.60
54946;DHT22;40846;44.788;20.486;2024-01-10T03:44:04;64.80;2201.60
54946;DHT22;40846;44.788;20.486;2024-01-10T03:46:31;64.90;2201.60
54946;DHT22;40846;44.788;20.486;2024-01-10T03:48:56;64.80;2201.60
54946;DHT22;40846;44.788;20.486;2024-01-10T03:51:22;64.80;2201.60
54946;DHT22;40846;44.788;20.486;2024-01-10T03:53:49;64.80;2201.60
54946;DHT22;40846;44.788;20.486;2024-01-10T03:56:15;64.90;2201.60
54946;DHT22;40846;44.788;20.486;2024-01-10T03:58:41;64.90;2201.60
54946;DHT22;40846;44.788;20.486;2024-01-10T04:01:08;64.80;2201.60
54946;DHT22;40846;44.788;20.486;2024-01-10T04:03:34;64.80;2201.60
54946;DHT22;40846;44.788;20.486;2024-01-10T04:06:01;64.70;2201.60
54946;DHT22;40846;44.788;20.486;2024-01-10T04:08:27;64.80;2201.60
54946;DHT22;40846;44.788;20.486;2024-01-10T04:10:53;64.80;2201.60
54946;DHT22;40846;44.788;20.486;2024-01-10T04:13:19;64.80;2201.60
54946;DHT22;40846;44.788;20.486;2024-01-10T04:15:45;64.90;2201.60
54946;DHT22;40846;44.788;20.486;2024-01-10T04:18:11;64.90;2201.60
54946;DHT22;40846;44.788;20.486;2024-01-10T04:20:36;64.90;2201.60
54946;DHT22;40846;44.788;20.486;2024-01-10T04:23:02;64.90;2201.60
54946;DHT22;40846;44.788;20.486;2024-01-10T04:25:28;64.80;2201.60
54946;DHT22;40846;44.788;20.486;2024-01-10T04:27:54;64.90;2201.60
54946;DHT22;40846;44.788;20.486;2024-01-10T04:30:21;64.90;2201.60
54946;DHT22;40846;44.788;20.486;2024-01-10T04:32:46;64.90;2201.60
54946;DHT22;40846;44.788;20.486;2024-01-10T04:35:12;89.60;2201.60
54946;DHT22;40846;44.788;20.486;2024-01-10T04:37:38;89.70;2176.00
54946;DHT22;40846;44.788;20.486;2024-01-10T04:40:05;89.70;2176.00
54946;DHT22;40846;44.788;20.486;2024-01-10T04:42:31;89.80;2176.00
54946;DHT22;40846;44.788;20.486;2024-01-10T04:44:57;89.70;2176.00
54946;DHT22;40846;44.788;20.486;2024-01-10T04:47:22;89.60;2201.60
54946;DHT22;40846;44.788;20.486;2024-01-10T04:49:48;89.70;2176.00
54946;DHT22;40846;44.788;20.486;2024-01-10T04:52:14;89.80;2176.00
54946;DHT22;40846;44.788;20.486;2024-01-10T04:54:40;89.70;2176.00
54946;DHT22;40846;44.788;20.486;2024-01-10T04:57:05;89.70;2176.00
54946;DHT22;40846;44.788;20.486;2024-01-10T04:59:31;89.70;2176.00
54946;DHT22;40846;44.788;20.486;2024-01-10T05:01:57;89.80;2176.00
54946;DHT22;40846;44.788;20.486;2024-01-10T05:04:23;89.80;2176.00
54946;DHT22;40846;44.788;20.486;2024-01-10T05:06:49;89.70;2176.00
54946;DHT22;40846;44.788;20.486;2024-01-10T05:09:15;89.70;2176.00
54946;DHT22;40846;44.788;20.486;2024-01-10T05:11:41;89.80;2176.00
54946;DHT22;40846;44.788;20.486;2024-01-10T05:14:07;89.90;2176.00
54946;DHT22;40846;44.788;20.486;2024-01-10T05:16:33;89.90;2176.00
54946;DHT22;40846;44.788;20.486;2024-01-10T05:19:01;89.80;2176.00
54946;DHT22;40846;44.788;20.486;2024-01-10T05:21:31;89.80;2176.00
54946;DHT22;40846;44.788;20.486;2024-01-10T05:23:57;89.70;2176.00
54946;DHT22;40846;44.788;20.486;2024-01-10T05:26:23;89.60;2201.60
54946;DHT22;40846;44.788;20.486;2024-01-10T05:28:49;89.60;2201.60
54946;DHT22;40846;44.788;20.486;2024-01-10T05:31:15;89.60;2201.60
54946;DHT22;40846;44.788;20.486;2024-01-10T05:33:41;89.60;2201.60
54946;DHT22;40846;44.788;20.486;2024-01-10T05:36:09;89.60;2201.60
54946;DHT22;40846;44.788;20.486;2024-01-10T05:38:37;89.60;2201.60
54946;DHT22;40846;44.788;20.486;2024-01-10T05:41:03;89.60;2201.60
54946;DHT22;40846;44.788;20.486;2024-01-10T05:43:29;89.60;2201.60
54946;DHT22;40846;44.788;20.486;2024-01-10T05:45:54;89.70;2176.00
54946;DHT22;40846;44.788;20.486;2024-01-10T05:48:20;89.60;2201.60
54946;DHT22;40846;44.788;20.486;2024-01-10T05:50:46;64.90;2201.60
54946;DHT22;40846;44.788;20.486;2024-01-10T05:53:30;64.80;2201.60
54946;DHT22;40846;44.788;20.486;2024-01-10T05:55:56;64.80;2201.60
54946;DHT22;40846;44.788;20.486;2024-01-10T05:58:21;64.80;2201.60
54946;DHT22;40846;44.788;20.486;2024-01-10T06:00:47;64.80;2201.60
54946;DHT22;40846;44.788;20.486;2024-01-10T06:03:13;64.80;2201.60
54946;DHT22;40846;44.788;20.486;2024-01-10T06:05:39;64.80;2201.60
54946;DHT22;40846;44.788;20.486;2024-01-10T06:08:05;64.90;2201.60
54946;DHT22;40846;44.788;20.486;2024-01-10T06:10:31;64.80;2201.60
54946;DHT22;40846;44.788;20.486;2024-01-10T06:12:57;64.80;2201.60
54946;DHT22;40846;44.788;20.486;2024-01-10T06:15:22;64.70;2201.60
54946;DHT22;40846;44.788;20.486;2024-01-10T06:17:48;64.70;2201.60
54946;DHT22;40846;44.788;20.486;2024-01-10T06:20:15;64.70;2201.60
54946;DHT22;40846;44.788;20.486;2024-01-10T06:22:41;64.80;2201.60
54946;DHT22;40846;44.788;20.486;2024-01-10T06:25:07;64.80;2201.60
54946;DHT22;40846;44.788;20.486;2024-01-10T06:27:33;64.90;2201.60
54946;DHT22;40846;44.788;20.486;2024-01-10T06:29:59;64.90;2201.60
54946;DHT22;40846;44.788;20.486;2024-01-10T06:32:24;64.90;2201.60
54946;DHT22;40846;44.788;20.486;2024-01-10T06:34:51;64.90;2201.60
54946;DHT22;40846;44.788;20.486;2024-01-10T06:37:19;64.90;2201.60
54946;DHT22;40846;44.788;20.486;2024-01-10T06:39:46;64.80;2201.60
54946;DHT22;40846;44.788;20.486;2024-01-10T06:42:12;64.80;2201.60
54946;DHT22;40846;44.788;20.486;2024-01-10T06:44:39;64.80;2201.60
54946;DHT22;40846;44.788;20.486;2024-01-10T06:47:05;64.80;2201.60
54946;DHT22;40846;44.788;20.486;2024-01-10T06:49:31;64.80;2201.60
54946;DHT22;40846;44.788;20.486;2024-01-10T06:51:57;64.80;2201.60
54946;DHT22;40846;44.788;20.486;2024-01-10T06:54:22;64.80;2201.60
54946;DHT22;40846;44.788;20.486;2024-01-10T06:56:48;64.70;2201.60
54946;DHT22;40846;44.788;20.486;2024-01-10T06:59:14;64.70;2201.60
54946;DHT22;40846;44.788;20.486;2024-01-10T07:01:40;64.80;2201.60
54946;DHT22;40846;44.788;20.486;2024-01-10T07:04:06;64.80;2201.60
54946;DHT22;40846;44.788;20.486;2024-01-10T07:06:32;64.90;2201.60
54946;DHT22;40846;44.788;20.486;2024-01-10T07:08:57;64.90;2201.60
54946;DHT22;40846;44.788;20.486;2024-01-10T07:11:24;64.80;2201.60
54946;DHT22;40846;44.788;20.486;2024-01-10T07:13:50;64.70;2201.60
54946;DHT22;40846;44.788;20.486;2024-01-10T07:16:15;64.60;2201.60
54946;DHT22;40846;44.788;20.486;2024-01-10T07:18:42;64.40;2201.60
54946;DHT22;40846;44.788;20.486;2024-01-10T07:21:09;64.30;2201.60
54946;DHT22;40846;44.788;20.486;2024-01-10T07:23:36;64.20;2201.60
54946;DHT22;40846;44.788;20.486;2024-01-10T07:26:03;64.10;2201.60
54946;DHT22;40846;44.788;20.486;2024-01-10T07:28:29;64.00;2201.60
54946;DHT22;40846;44.788;20.486;2024-01-10T07:30:56;64.00;2201.60
54946;DHT22;40846;44.788;20.486;2024-01-10T07:33:22;39.20;2201.60
54946;DHT22;40846;44.788;20.486;2024-01-10T07:35:47;64.00;2201.60
54946;DHT22;40846;44.788;20.486;2024-01-10T07:38:13;64.00;2201.60
54946;DHT22;40846;44.788;20.486;2024-01-10T07:40:39;39.30;2201.60
54946;DHT22;40846;44.788;20.486;2024-01-10T07:43:05;39.20;2201.60
54946;DHT22;40846;44.788;20.486;2024-01-10T07:45:30;39.20;2201.60
54946;DHT22;40846;44.788;20.486;2024-01-10T07:47:56;39.10;2201.60
54946;DHT22;40846;44.788;20.486;2024-01-10T07:50:22;39.00;2201.60
54946;DHT22;40846;44.788;20.486;2024-01-10T07:52:52;39.10;2201.60
54946;DHT22;40846;44.788;20.486;2024-01-10T07:55:18;39.10;2201.60
54946;DHT22;40846;44.788;20.486;2024-01-10T07:57:44;39.10;2201.60
54946;DHT22;40846;44.788;20.486;2024-01-10T08:00:10;39.10;2201.60
54946;DHT22;40846;44.788;20.486;2024-01-10T08:02:37;39.00;2201.60
54946;DHT22;40846;44.788;20.486;2024-01-10T08:05:03;39.00;2201.60
54946;DHT22;40846;44.788;20.486;2024-01-10T08:07:35;39.10;2201.60
54946;DHT22;40846;44.788;20.486;2024-01-10T08:10:04;39.10;2201.60
54946;DHT22;40846;44.788;20.486;2024-01-10T08:12:30;39.10;2201.60
54946;DHT22;40846;44.788;20.486;2024-01-10T08:14:57;39.10;2201.60
54946;DHT22;40846;44.788;20.486;2024-01-10T08:17:22;39.20;2201.60
54946;DHT22;40846;44.788;20.486;2024-01-10T08:19:49;39.10;2201.60
54946;DHT22;40846;44.788;20.486;2024-01-10T08:22:14;39.10;2201.60
54946;DHT22;40846;44.788;20.486;2024-01-10T08:24:41;39.10;2201.60
54946;DHT22;40846;44.788;20.486;2024-01-10T08:27:06;39.10;2201.60
54946;DHT22;40846;44.788;20.486;2024-01-10T08:29:33;39.10;2201.60
54946;DHT22;40846;44.788;20.486;2024-01-10T08:31:59;39.00;2201.60
54946;DHT22;40846;44.788;20.486;2024-01-10T08:34:25;39.00;2201.60
54946;DHT22;40846;44.788;20.486;2024-01-10T08:36:51;38.80;2201.60
54946;DHT22;40846;44.788;20.486;2024-01-10T08:39:17;38.70;2201.60
54946;DHT22;40846;44.788;20.486;2024-01-10T08:41:43;38.70;2201.60
54946;DHT22;40846;44.788;20.486;2024-01-10T08:44:13;38.60;2201.60
54946;DHT22;40846;44.788;20.486;2024-01-10T08:46:39;38.50;2201.60
54946;DHT22;40846;44.788;20.486;2024-01-10T08:49:05;38.50;2201.60
54946;DHT22;40846;44.788;20.486;2024-01-10T08:51:31;38.40;2201.60
54946;DHT22;40846;44.788;20.486;2024-01-10T08:53:56;13.70;2201.60
54946;DHT22;40846;44.788;20.486;2024-01-10T08:56:23;13.70;2201.60
54946;DHT22;40846;44.788;20.486;2024-01-10T08:58:49;13.30;2201.60
54946;DHT22;40846;44.788;20.486;2024-01-10T09:01:15;13.00;2201.60
54946;DHT22;40846;44.788;20.486;2024-01-10T09:03:41;0.20;2201.60
54946;DHT22;40846;44.788;20.486;2024-01-10T09:06:07;0.70;2201.60
54946;DHT22;40846;44.788;20.486;2024-01-10T09:08:36;51.20;2227.20
54946;DHT22;40846;44.788;20.486;2024-01-10T09:11:02;77.00;2099.20
54946;DHT22;40846;44.788;20.486;2024-01-10T09:13:29;102.50;1971.20
54946;DHT22;40846;44.788;20.486;2024-01-10T09:42:56;128.20;1766.40
54946;DHT22;40846;44.788;20.486;2024-01-10T09:45:23;103.20;2124.80
54946;DHT22;40846;44.788;20.486;2024-01-10T09:47:56;102.70;1817.60
54946;DHT22;40846;44.788;20.486;2024-01-10T09:50:28;102.40;1843.20
54946;DHT22;40846;44.788;20.486;2024-01-10T09:53:06;77.40;1894.40
54946;DHT22;40846;44.788;20.486;2024-01-10T09:55:36;77.30;1920.00
54946;DHT22;40846;44.788;20.486;2024-01-10T09:58:12;102.40;1920.00
54946;DHT22;40846;44.788;20.486;2024-01-10T10:00:40;103.00;1868.80
54946;DHT22;40846;44.788;20.486;2024-01-10T10:03:10;128.10;1843.20
54946;DHT22;40846;44.788;20.486;2024-01-10T10:05:40;128.10;1843.20
54946;DHT22;40846;44.788;20.486;2024-01-10T11:31:31;102.90;1792.00
54946;DHT22;40846;44.788;20.486;2024-01-10T11:33:59;102.60;1996.80
54946;DHT22;40846;44.788;20.486;2024-01-10T11:36:25;102.40;1843.20
54946;DHT22;40846;44.788;20.486;2024-01-10T11:41:39;77.70;1868.80
54946;DHT22;40846;44.788;20.486;2024-01-10T11:46:59;102.60;1894.40
54946;DHT22;40846;44.788;20.486;2024-01-10T11:49:25;102.70;1894.40
54946;DHT22;40846;44.788;20.486;2024-01-10T11:51:58;102.60;1945.60
54946;DHT22;40846;44.788;20.486;2024-01-10T11:54:44;102.80;1920.00
54946;DHT22;40846;44.788;20.486;2024-01-10T12:34:17;256.10;1612.80
54946;DHT22;40846;44.788;20.486;2024-01-10T12:36:43;256.20;1587.20
54946;DHT22;40846;44.788;20.486;2024-01-10T12:39:11;231.20;1587.20
54946;DHT22;40846;44.788;20.486;2024-01-10T12:41:37;230.90;1612.80
54946;DHT22;40846;44.788;20.486;2024-01-10T12:46:31;179.70;1792.00
54946;DHT22;40846;44.788;20.486;2024-01-10T12:51:29;179.80;1817.60
54946;DHT22;40846;44.788;20.486;2024-01-10T12:53:56;179.60;1817.60
54946;DHT22;40846;44.788;20.486;2024-01-10T12:56:24;179.70;1817.60
54946;DHT22;40846;44.788;20.486;2024-01-10T12:58:50;180.00;1792.00
54946;DHT22;40846;44.788;20.486;2024-01-10T13:01:16;204.80;1766.40
54946;DHT22;40846;44.788;20.486;2024-01-10T13:03:42;205.20;1740.80
54946;DHT22;40846;44.788;20.486;2024-01-10T13:06:09;180.10;1740.80
54946;DHT22;40846;44.788;20.486;2024-01-10T13:08:36;179.40;1792.00
54946;DHT22;40846;44.788;20.486;2024-01-10T13:11:07;154.30;1843.20
54946;DHT22;40846;44.788;20.486;2024-01-10T13:18:30;103.10;1996.80
54946;DHT22;40846;44.788;20.486;2024-01-10T13:20:56;103.00;2227.20
54946;DHT22;40846;44.788;20.486;2024-01-10T13:25:52;102.70;2073.60
54946;DHT22;40846;44.788;20.486;2024-01-10T13:28:19;102.40;2099.20
54946;DHT22;40846;44.788;20.486;2024-01-10T13:30:45;77.50;2124.80
54946;DHT22;40846;44.788;20.486;2024-01-10T13:33:11;77.40;2176.00
54946;DHT22;40846;44.788;20.486;2024-01-10T13:35:37;77.40;2176.00
54946;DHT22;40846;44.788;20.486;2024-01-10T13:38:04;77.40;2227.20
54946;DHT22;40846;44.788;20.486;2024-01-10T13:40:30;77.30;2227.20
54946;DHT22;40846;44.788;20.486;2024-01-10T13:50:18;77.10;2227.20
54946;DHT22;40846;44.788;20.486;2024-01-10T13:52:44;76.90;2227.20
54946;DHT22;40846;44.788;20.486;2024-01-10T13:55:10;76.80;2227.20
54946;DHT22;40846;44.788;20.486;2024-01-10T13:57:35;52.10;2227.20
54946;DHT22;40846;44.788;20.486;2024-01-10T14:00:02;52.00;2227.20
54946;DHT22;40846;44.788;20.486;2024-01-10T14:02:33;52.00;2227.20
54946;DHT22;40846;44.788;20.486;2024-01-10T14:05:01;51.90;2227.20
54946;DHT22;40846;44.788;20.486;2024-01-10T14:07:31;51.80;2227.20
54946;DHT22;40846;44.788;20.486;2024-01-10T14:09:58;51.70;2227.20
54946;DHT22;40846;44.788;20.486;2024-01-10T14:12:24;51.30;2227.20
54946;DHT22;40846;44.788;20.486;2024-01-10T14:14:49;51.30;2227.20
54946;DHT22;40846;44.788;20.486;2024-01-10T14:17:16;51.20;2227.20
54946;DHT22;40846;44.788;20.486;2024-01-10T14:19:42;51.40;2227.20
54946;DHT22;40846;44.788;20.486;2024-01-10T14:22:09;51.40;2227.20
54946;DHT22;40846;44.788;20.486;2024-01-10T14:24:35;51.40;2227.20
54946;DHT22;40846;44.788;20.486;2024-01-10T14:27:01;51.20;2227.20
54946;DHT22;40846;44.788;20.486;2024-01-10T14:29:27;51.30;2227.20
54946;DHT22;40846;44.788;20.486;2024-01-10T14:31:52;51.20;2227.20
54946;DHT22;40846;44.788;20.486;2024-01-10T14:34:18;26.40;2201.60
54946;DHT22;40846;44.788;20.486;2024-01-10T14:36:44;26.20;2201.60
54946;DHT22;40846;44.788;20.486;2024-01-10T14:39:10;26.30;2201.60
54946;DHT22;40846;44.788;20.486;2024-01-10T14:41:39;26.40;2201.60
54946;DHT22;40846;44.788;20.486;2024-01-10T14:44:07;26.50;2201.60
54946;DHT22;40846;44.788;20.486;2024-01-10T14:46:33;26.50;2201.60
54946;DHT22;40846;44.788;20.486;2024-01-10T14:48:59;26.50;2201.60
54946;DHT22;40846;44.788;20.486;2024-01-10T14:51:25;26.50;2201.60
54946;DHT22;40846;44.788;20.486;2024-01-10T14:53:50;26.50;2201.60
54946;DHT22;40846;44.788;20.486;2024-01-10T14:56:19;26.50;2201.60
54946;DHT22;40846;44.788;20.486;2024-01-10T14:58:45;26.40;2201.60
54946;DHT22;40846;44.788;20.486;2024-01-10T15:01:11;26.30;2201.60
54946;DHT22;40846;44.788;20.486;2024-01-10T15:03:37;25.90;2201.60
54946;DHT22;40846;44.788;20.486;2024-01-10T15:06:06;25.90;2201.60
54946;DHT22;40846;44.788;20.486;2024-01-10T15:08:32;26.00;2201.60
54946;DHT22;40846;44.788;20.486;2024-01-10T15:11:10;26.00;2201.60
54946;DHT22;40846;44.788;20.486;2024-01-10T15:13:39;26.00;2201.60
54946;DHT22;40846;44.788;20.486;2024-01-10T15:16:08;25.90;2201.60
54946;DHT22;40846;44.788;20.486;2024-01-10T15:18:34;26.10;2201.60
54946;DHT22;40846;44.788;20.486;2024-01-10T15:20:59;26.00;2201.60
54946;DHT22;40846;44.788;20.486;2024-01-10T15:23:25;26.00;2201.60
54946;DHT22;40846;44.788;20.486;2024-01-10T15:25:51;25.90;2201.60
54946;DHT22;40846;44.788;20.486;2024-01-10T15:28:17;25.90;2201.60
54946;DHT22;40846;44.788;20.486;2024-01-10T15:30:42;25.70;2201.60
54946;DHT22;40846;44.788;20.486;2024-01-10T15:33:08;25.60;2201.60
54946;DHT22;40846;44.788;20.486;2024-01-10T15:35:57;25.70;2201.60
54946;DHT22;40846;44.788;20.486;2024-01-10T15:38:32;25.70;2201.60
54946;DHT22;40846;44.788;20.486;2024-01-10T15:41:02;25.70;2201.60
54946;DHT22;40846;44.788;20.486;2024-01-10T15:43:34;25.70;2201.60
54946;DHT22;40846;44.788;20.486;2024-01-10T15:46:06;25.60;2201.60
54946;DHT22;40846;44.788;20.486;2024-01-10T15:48:35;0.80;2201.60
54946;DHT22;40846;44.788;20.486;2024-01-10T15:51:01;0.80;2201.60
54946;DHT22;40846;44.788;20.486;2024-01-10T15:53:27;0.80;2201.60
54946;DHT22;40846;44.788;20.486;2024-01-10T15:55:54;0.40;2201.60
54946;DHT22;40846;44.788;20.486;2024-01-10T15:58:21;0.50;2201.60
54946;DHT22;40846;44.788;20.486;2024-01-10T16:00:47;0.50;2201.60
54946;DHT22;40846;44.788;20.486;2024-01-10T16:03:13;0.30;2201.60
54946;DHT22;40846;44.788;20.486;2024-01-10T16:05:38;0.30;2201.60
54946;DHT22;40846;44.788;20.486;2024-01-10T16:08:08;0.30;2201.60
54946;DHT22;40846;44.788;20.486;2024-01-10T16:10:38;0.20;2201.60
54946;DHT22;40846;44.788;20.486;2024-01-10T16:13:05;0.30;2201.60
54946;DHT22;40846;44.788;20.486;2024-01-10T16:15:31;0.20;2201.60
54946;DHT22;40846;44.788;20.486;2024-01-10T16:17:57;0.20;2201.60
54946;DHT22;40846;44.788;20.486;2024-01-10T16:20:23;0.10;2201.60
54946;DHT22;40846;44.788;20.486;2024-01-10T16:22:49;0.10;2201.60
54946;DHT22;40846;44.788;20.486;2024-01-10T16:25:15;0.10;2201.60
54946;DHT22;40846;44.788;20.486;2024-01-10T16:27:41;0.10;2201.60
54946;DHT22;40846;44.788;20.486;2024-01-10T16:30:07;0.10;2201.60
54946;DHT22;40846;44.788;20.486;2024-01-10T16:32:34;0.10;2201.60
54946;DHT22;40846;44.788;20.486;2024-01-10T16:35:00;12.90;2201.60
54946;DHT22;40846;44.788;20.486;2024-01-10T16:37:25;13.10;2201.60
54946;DHT22;40846;44.788;20.486;2024-01-10T16:39:51;13.10;2201.60
54946;DHT22;40846;44.788;20.486;2024-01-10T16:42:17;13.30;2201.60
54946;DHT22;40846;44.788;20.486;2024-01-10T16:44:43;13.30;2201.60
54946;DHT22;40846;44.788;20.486;2024-01-10T16:47:09;13.30;2201.60
54946;DHT22;40846;44.788;20.486;2024-01-10T16:49:35;13.20;2201.60
54946;DHT22;40846;44.788;20.486;2024-01-10T16:52:01;13.10;2201.60
54946;DHT22;40846;44.788;20.486;2024-01-10T16:54:29;13.00;2201.60
54946;DHT22;40846;44.788;20.486;2024-01-10T16:56:55;13.00;2201.60
54946;DHT22;40846;44.788;20.486;2024-01-10T16:59:21;13.10;2201.60
54946;DHT22;40846;44.788;20.486;2024-01-10T17:01:48;13.00;2201.60
54946;DHT22;40846;44.788;20.486;2024-01-10T17:04:14;13.00;2201.60
54946;DHT22;40846;44.788;20.486;2024-01-10T17:06:40;12.90;2201.60
54946;DHT22;40846;44.788;20.486;2024-01-10T17:09:07;13.00;2201.60
54946;DHT22;40846;44.788;20.486;2024-01-10T17:11:39;13.20;2201.60
54946;DHT22;40846;44.788;20.486;2024-01-10T17:14:05;13.10;2201.60
54946;DHT22;40846;44.788;20.486;2024-01-10T17:16:31;13.00;2201.60
54946;DHT22;40846;44.788;20.486;2024-01-10T17:18:58;13.00;2201.60
54946;DHT22;40846;44.788;20.486;2024-01-10T17:21:24;13.00;2201.60
54946;DHT22;40846;44.788;20.486;2024-01-10T17:23:49;13.00;2201.60
54946;DHT22;40846;44.788;20.486;2024-01-10T17:26:15;13.00;2201.60
54946;DHT22;40846;44.788;20.486;2024-01-10T17:28:41;13.00;2201.60
54946;DHT22;40846;44.788;20.486;2024-01-10T17:31:11;13.10;2201.60
54946;DHT22;40846;44.788;20.486;2024-01-10T17:33:38;13.10;2201.60
54946;DHT22;40846;44.788;20.486;2024-01-10T17:36:04;13.40;2201.60
54946;DHT22;40846;44.788;20.486;2024-01-10T17:38:30;13.40;2201.60